createdAt,value
2018-01-27T00:00:41.288Z,87.76
2018-01-27T00:01:41.285Z,87.67
2018-01-27T00:02:41.281Z,87.86
2018-01-27T00:03:41.276Z,87.86
2018-01-27T00:04:41.271Z,88.15
2018-01-27T00:05:41.270Z,88.34
2018-01-27T00:06:41.258Z,88.05
2018-01-27T00:07:41.261Z,88.34
2018-01-27T00:08:41.255Z,88.05
2018-01-27T00:09:41.253Z,88.90
2018-01-27T00:10:41.245Z,88.05
2018-01-27T00:11:41.242Z,88.05
2018-01-27T00:12:41.243Z,88.24
2018-01-27T00:13:41.242Z,88.05
2018-01-27T00:14:41.230Z,88.24
2018-01-27T00:15:41.228Z,87.67
2018-01-27T00:16:41.218Z,87.76
2018-01-27T00:17:41.217Z,87.86
2018-01-27T00:18:41.212Z,87.86
2018-01-27T00:19:41.207Z,87.76
2018-01-27T00:20:41.204Z,88.24
2018-01-27T00:21:41.199Z,88.34
2018-01-27T00:22:41.198Z,88.34
2018-01-27T00:23:41.188Z,88.34
2018-01-27T00:24:41.188Z,88.15
2018-01-27T00:25:41.181Z,88.15
2018-01-27T00:26:41.176Z,87.86
2018-01-27T00:27:41.174Z,87.86
2018-01-27T00:28:41.168Z,88.05
2018-01-27T00:29:41.172Z,88.15
2018-01-27T00:30:41.160Z,88.34
2018-01-27T00:31:41.156Z,88.24
2018-01-27T00:32:41.153Z,87.67
2018-01-27T00:33:41.145Z,87.86
2018-01-27T00:34:41.139Z,87.86
2018-01-27T00:35:41.137Z,87.76
2018-01-27T00:36:41.134Z,87.95
2018-01-27T00:37:41.130Z,87.76
2018-01-27T00:38:41.122Z,88.24
2018-01-27T00:39:41.125Z,88.24
2018-01-27T00:40:41.119Z,87.76
2018-01-27T00:41:41.117Z,87.76
2018-01-27T00:42:41.108Z,87.57
2018-01-27T00:43:41.098Z,87.29
2018-01-27T00:44:41.099Z,87.57
2018-01-27T00:45:41.096Z,88.24
2018-01-27T00:46:41.091Z,88.24
2018-01-27T00:47:41.085Z,87.67
2018-01-27T00:48:41.082Z,87.86
2018-01-27T00:49:41.082Z,87.76
2018-01-27T00:50:41.075Z,87.95
2018-01-27T00:51:41.068Z,88.05
2018-01-27T00:52:41.064Z,87.76
2018-01-27T00:53:41.058Z,87.76
2018-01-27T00:54:41.055Z,87.86
2018-01-27T00:55:41.051Z,87.86
2018-01-27T00:56:41.047Z,87.76
2018-01-27T00:57:41.042Z,88.15
2018-01-27T00:58:41.040Z,88.24
2018-01-27T00:59:41.034Z,88.15
2018-01-27T01:00:41.029Z,88.24
2018-01-27T01:01:41.025Z,88.15
2018-01-27T01:02:41.016Z,88.05
2018-01-27T01:03:41.017Z,88.15
2018-01-27T01:04:41.008Z,88.24
2018-01-27T01:05:41.007Z,88.15
2018-01-27T01:06:41.004Z,88.05
2018-01-27T01:07:41.000Z,88.24
2018-01-27T01:08:40.994Z,88.24
2018-01-27T01:09:40.988Z,88.24
2018-01-27T01:10:40.989Z,88.15
2018-01-27T01:11:40.976Z,88.05
2018-01-27T01:12:40.976Z,88.34
2018-01-27T01:13:40.975Z,88.34
2018-01-27T01:14:40.967Z,88.24
2018-01-27T01:15:40.964Z,87.76
2018-01-27T01:16:40.959Z,87.95
2018-01-27T01:17:40.959Z,87.67
2018-01-27T01:18:40.951Z,87.76
2018-01-27T01:19:40.946Z,87.67
2018-01-27T01:20:40.943Z,87.48
2018-01-27T01:21:40.937Z,87.76
2018-01-27T01:22:40.934Z,87.67
2018-01-27T01:23:40.930Z,87.76
2018-01-27T01:24:40.924Z,87.76
2018-01-27T01:25:40.922Z,87.76
2018-01-27T01:26:40.922Z,87.76
2018-01-27T01:27:40.918Z,87.29
2018-01-27T01:28:40.959Z,87.95
2018-01-27T01:29:40.901Z,87.29
2018-01-27T01:30:40.895Z,87.48
2018-01-27T01:31:40.894Z,87.57
2018-01-27T01:32:40.889Z,87.67
2018-01-27T01:33:40.884Z,87.48
2018-01-27T01:34:40.882Z,87.76
2018-01-27T01:35:40.877Z,87.57
2018-01-27T01:36:40.872Z,87.76
2018-01-27T01:37:40.864Z,87.86
2018-01-27T01:38:40.864Z,87.57
2018-01-27T01:39:40.864Z,87.57
2018-01-27T01:40:40.854Z,87.67
2018-01-27T01:41:40.850Z,87.67
2018-01-27T01:42:40.844Z,87.48
2018-01-27T01:43:40.842Z,87.76
2018-01-27T01:44:40.839Z,86.91
2018-01-27T01:45:40.838Z,87.29
2018-01-27T01:46:40.827Z,87.01
2018-01-27T01:47:40.821Z,86.72
2018-01-27T01:48:40.821Z,87.67
2018-01-27T01:49:40.814Z,87.48
2018-01-27T01:50:40.812Z,87.76
2018-01-27T01:51:40.807Z,87.76
2018-01-27T01:52:40.799Z,87.76
2018-01-27T01:53:40.795Z,87.67
2018-01-27T01:54:40.790Z,87.67
2018-01-27T01:55:40.787Z,87.57
2018-01-27T01:56:40.789Z,87.48
2018-01-27T01:57:40.773Z,87.67
2018-01-27T01:58:40.773Z,87.67
2018-01-27T01:59:40.770Z,87.67
2018-01-27T02:00:40.762Z,87.67
2018-01-27T02:01:40.760Z,87.76
2018-01-27T02:02:40.756Z,87.76
2018-01-27T02:03:40.751Z,87.76
2018-01-27T02:04:40.746Z,87.48
2018-01-27T02:05:40.741Z,87.86
2018-01-27T02:06:40.737Z,87.57
2018-01-27T02:07:40.730Z,87.86
2018-01-27T02:08:40.727Z,87.57
2018-01-27T02:09:40.725Z,87.10
2018-01-27T02:10:40.720Z,87.48
2018-01-27T02:11:40.715Z,87.76
2018-01-27T02:12:40.717Z,87.38
2018-01-27T02:13:40.709Z,87.48
2018-01-27T02:14:40.697Z,87.67
2018-01-27T02:15:40.701Z,87.48
2018-01-27T02:16:40.691Z,87.76
2018-01-27T02:17:40.689Z,87.76
2018-01-27T02:18:40.683Z,87.48
2018-01-27T02:19:40.677Z,87.76
2018-01-27T02:20:40.673Z,87.67
2018-01-27T02:21:40.674Z,87.76
2018-01-27T02:22:40.668Z,87.76
2018-01-27T02:23:40.660Z,87.76
2018-01-27T02:24:40.661Z,87.76
2018-01-27T02:25:40.652Z,87.67
2018-01-27T02:26:40.647Z,87.67
2018-01-27T02:27:40.644Z,87.76
2018-01-27T02:28:40.637Z,87.48
2018-01-27T02:29:40.633Z,87.48
2018-01-27T02:30:40.633Z,87.76
2018-01-27T02:31:40.622Z,87.48
2018-01-27T02:32:40.618Z,87.48
2018-01-27T02:33:40.613Z,87.57
2018-01-27T02:34:40.608Z,87.38
2018-01-27T02:35:40.605Z,87.48
2018-01-27T02:36:40.600Z,88.01
2018-01-27T02:37:40.595Z,87.95
2018-01-27T02:38:40.600Z,87.82
2018-01-27T02:39:40.590Z,87.95
2018-01-27T02:40:40.580Z,87.67
2018-01-27T02:41:40.575Z,87.95
2018-01-27T02:42:40.564Z,87.76
2018-01-27T02:43:40.568Z,87.82
2018-01-27T02:44:40.558Z,87.72
2018-01-27T02:45:40.555Z,87.76
2018-01-27T02:46:40.549Z,87.76
2018-01-27T02:47:40.545Z,87.95
2018-01-27T02:48:40.542Z,87.86
2018-01-27T02:49:40.538Z,87.72
2018-01-27T02:50:40.530Z,87.72
2018-01-27T02:51:40.521Z,87.62
2018-01-27T02:52:40.521Z,87.62
2018-01-27T02:53:40.532Z,88.34
2018-01-27T02:54:40.509Z,88.24
2018-01-27T02:55:40.505Z,87.91
2018-01-27T02:56:40.500Z,87.62
2018-01-27T02:57:40.494Z,87.95
2018-01-27T02:58:40.491Z,87.72
2018-01-27T02:59:40.487Z,88.10
2018-01-27T03:00:40.477Z,87.91
2018-01-27T03:01:40.474Z,87.76
2018-01-27T03:02:40.468Z,87.82
2018-01-27T03:03:40.463Z,88.34
2018-01-27T03:04:40.459Z,88.24
2018-01-27T03:05:40.458Z,88.20
2018-01-27T03:06:40.453Z,87.91
2018-01-27T03:07:40.442Z,88.01
2018-01-27T03:08:40.441Z,89.05
2018-01-27T03:09:40.434Z,87.95
2018-01-27T03:10:40.427Z,88.10
2018-01-27T03:11:40.423Z,88.15
2018-01-27T03:12:40.419Z,88.05
2018-01-27T03:13:40.412Z,88.05
2018-01-27T03:14:40.407Z,87.57
2018-01-27T03:15:40.408Z,88.05
2018-01-27T03:16:40.393Z,87.76
2018-01-27T03:17:40.394Z,87.76
2018-01-27T03:18:40.388Z,87.86
2018-01-27T03:19:40.382Z,88.10
2018-01-27T03:20:40.379Z,87.76
2018-01-27T03:21:40.374Z,87.72
2018-01-27T03:22:40.367Z,88.10
2018-01-27T03:23:40.363Z,87.86
2018-01-27T03:24:40.363Z,87.76
2018-01-27T03:25:40.353Z,87.72
2018-01-27T03:26:40.344Z,87.67
2018-01-27T03:27:40.344Z,87.72
2018-01-27T03:28:40.337Z,87.91
2018-01-27T03:29:40.335Z,87.43
2018-01-27T03:30:40.326Z,88.10
2018-01-27T03:31:40.324Z,87.91
2018-01-27T03:32:40.317Z,87.91
2018-01-27T03:33:40.314Z,87.62
2018-01-27T03:34:40.305Z,88.10
2018-01-27T03:35:40.300Z,88.20
2018-01-27T03:36:40.301Z,88.39
2018-01-27T03:37:40.297Z,88.20
2018-01-27T03:38:40.287Z,88.20
2018-01-27T03:39:40.283Z,88.01
2018-01-27T03:40:40.283Z,88.01
2018-01-27T03:41:40.273Z,88.39
2018-01-27T03:42:40.268Z,88.39
2018-01-27T03:43:40.261Z,88.67
2018-01-27T03:44:40.255Z,88.10
2018-01-27T03:45:40.251Z,88.29
2018-01-27T03:46:40.246Z,88.01
2018-01-27T03:47:40.242Z,88.29
2018-01-27T03:48:40.237Z,88.20
2018-01-27T03:49:40.242Z,88.86
2018-01-27T03:50:40.226Z,88.86
2018-01-27T03:51:40.221Z,88.76
2018-01-27T03:52:40.213Z,88.95
2018-01-27T03:53:40.208Z,88.20
2018-01-27T03:54:40.204Z,88.20
2018-01-27T03:55:40.201Z,88.67
2018-01-27T03:56:40.200Z,88.39
2018-01-27T03:57:40.192Z,88.76
2018-01-27T03:58:40.190Z,88.76
2018-01-27T03:59:40.181Z,89.14
2018-01-27T04:00:40.175Z,88.76
2018-01-27T04:01:40.169Z,88.86
2018-01-27T04:02:40.164Z,88.86
2018-01-27T04:03:40.168Z,88.76
2018-01-27T04:04:40.161Z,88.86
2018-01-27T04:05:40.154Z,89.05
2018-01-27T04:06:40.150Z,88.95
2018-01-27T04:07:40.141Z,88.57
2018-01-27T04:08:40.136Z,88.76
2018-01-27T04:09:40.128Z,89.05
2018-01-27T04:10:40.125Z,88.76
2018-01-27T04:11:40.120Z,88.86
2018-01-27T04:12:40.121Z,88.95
2018-01-27T04:13:40.109Z,88.76
2018-01-27T04:14:40.108Z,88.67
2018-01-27T04:15:40.106Z,89.05
2018-01-27T04:16:40.095Z,89.05
2018-01-27T04:17:40.092Z,89.14
2018-01-27T04:18:40.082Z,88.57
2018-01-27T04:19:40.078Z,89.05
2018-01-27T04:20:40.073Z,88.95
2018-01-27T04:21:40.070Z,89.14
2018-01-27T04:22:40.064Z,89.24
2018-01-27T04:23:40.060Z,88.57
2018-01-27T04:24:40.057Z,88.86
2018-01-27T04:25:40.050Z,88.86
2018-01-27T04:26:40.048Z,88.95
2018-01-27T04:27:40.037Z,88.86
2018-01-27T04:28:40.089Z,89.14
2018-01-27T04:29:40.029Z,89.05
2018-01-27T04:30:40.024Z,88.20
2018-01-27T04:31:40.019Z,88.29
2018-01-27T04:32:40.017Z,88.76
2018-01-27T04:33:40.009Z,88.95
2018-01-27T04:34:40.004Z,89.14
2018-01-27T04:35:39.998Z,88.76
2018-01-27T04:36:39.992Z,88.76
2018-01-27T04:37:39.988Z,87.91
2018-01-27T04:38:39.984Z,89.05
2018-01-27T04:39:39.980Z,87.91
2018-01-27T04:40:39.973Z,88.01
2018-01-27T04:41:39.976Z,87.91
2018-01-27T04:42:39.965Z,88.20
2018-01-27T04:43:39.957Z,87.91
2018-01-27T04:44:39.952Z,87.91
2018-01-27T04:45:39.947Z,88.10
2018-01-27T04:46:39.943Z,88.01
2018-01-27T04:47:39.937Z,88.20
2018-01-27T04:48:39.932Z,88.39
2018-01-27T04:49:39.928Z,87.82
2018-01-27T04:50:39.924Z,88.10
2018-01-27T04:51:39.917Z,88.29
2018-01-27T04:52:39.912Z,88.01
2018-01-27T04:53:39.903Z,88.20
2018-01-27T04:54:39.903Z,88.29
2018-01-27T04:55:39.901Z,87.91
2018-01-27T04:56:39.891Z,88.20
2018-01-27T04:57:39.891Z,88.29
2018-01-27T04:58:39.885Z,88.10
2018-01-27T04:59:39.878Z,88.29
2018-01-27T05:00:39.874Z,87.72
2018-01-27T05:01:39.867Z,88.10
2018-01-27T05:02:39.862Z,87.91
2018-01-27T05:03:39.857Z,88.10
2018-01-27T05:04:39.867Z,87.91
2018-01-27T05:05:39.847Z,88.10
2018-01-27T05:06:39.843Z,88.20
2018-01-27T05:07:39.843Z,88.20
2018-01-27T05:08:39.830Z,88.10
2018-01-27T05:09:39.828Z,88.01
2018-01-27T05:10:39.824Z,88.20
2018-01-27T05:11:39.814Z,88.10
2018-01-27T05:12:39.812Z,87.91
2018-01-27T05:13:39.812Z,88.20
2018-01-27T05:14:39.800Z,88.10
2018-01-27T05:15:39.798Z,88.20
2018-01-27T05:16:39.791Z,88.01
2018-01-27T05:17:39.789Z,88.10
2018-01-27T05:18:39.780Z,88.29
2018-01-27T05:19:39.773Z,87.72
2018-01-27T05:20:39.770Z,87.62
2018-01-27T05:21:39.766Z,88.29
2018-01-27T05:22:39.766Z,88.29
2018-01-27T05:23:39.755Z,87.91
2018-01-27T05:24:39.751Z,87.72
2018-01-27T05:25:39.745Z,88.10
2018-01-27T05:26:39.737Z,88.20
2018-01-27T05:27:39.735Z,88.20
2018-01-27T05:28:39.727Z,88.10
2018-01-27T05:29:39.726Z,87.91
2018-01-27T05:30:39.717Z,88.20
2018-01-27T05:31:39.716Z,88.20
2018-01-27T05:32:39.707Z,88.29
2018-01-27T05:33:39.702Z,88.20
2018-01-27T05:34:39.751Z,87.91
2018-01-27T05:35:39.701Z,88.29
2018-01-27T05:36:39.682Z,87.91
2018-01-27T05:37:39.679Z,88.01
2018-01-27T05:38:39.676Z,88.10
2018-01-27T05:39:39.669Z,88.29
2018-01-27T05:40:39.672Z,88.10
2018-01-27T05:41:39.661Z,88.10
2018-01-27T05:42:39.653Z,87.72
2018-01-27T05:43:39.649Z,87.82
2018-01-27T05:44:39.653Z,87.82
2018-01-27T05:45:39.637Z,87.91
2018-01-27T05:46:39.631Z,88.10
2018-01-27T05:47:39.626Z,88.10
2018-01-27T05:48:39.621Z,88.10
2018-01-27T05:49:39.617Z,88.20
2018-01-27T05:50:39.611Z,88.10
2018-01-27T05:51:39.607Z,88.10
2018-01-27T05:52:39.603Z,87.91
2018-01-27T05:53:39.592Z,88.86
2018-01-27T05:54:39.589Z,89.05
2018-01-27T05:55:39.584Z,88.95
2018-01-27T05:56:39.583Z,88.57
2018-01-27T05:57:39.572Z,88.76
2018-01-27T05:58:39.573Z,88.86
2018-01-27T05:59:39.560Z,89.05
2018-01-27T06:00:39.556Z,88.95
2018-01-27T06:01:39.552Z,88.86
2018-01-27T06:02:39.547Z,88.95
2018-01-27T06:03:39.542Z,88.95
2018-01-27T06:04:39.536Z,88.10
2018-01-27T06:05:39.533Z,87.91
2018-01-27T06:06:39.525Z,88.10
2018-01-27T06:07:39.521Z,88.10
2018-01-27T06:08:39.513Z,88.01
2018-01-27T06:09:39.512Z,88.29
2018-01-27T06:10:39.500Z,87.82
2018-01-27T06:11:39.500Z,87.72
2018-01-27T06:12:39.494Z,87.82
2018-01-27T06:13:39.494Z,87.72
2018-01-27T06:14:39.484Z,87.82
2018-01-27T06:15:39.479Z,87.72
2018-01-27T06:16:39.474Z,87.91
2018-01-27T06:17:39.467Z,87.91
2018-01-27T06:18:39.489Z,87.72
2018-01-27T06:19:39.453Z,88.20
2018-01-27T06:20:39.452Z,88.10
2018-01-27T06:21:39.447Z,88.76
2018-01-27T06:22:39.442Z,88.67
2018-01-27T06:23:39.435Z,87.91
2018-01-27T06:24:39.438Z,88.29
2018-01-27T06:25:39.425Z,88.20
2018-01-27T06:26:39.419Z,88.01
2018-01-27T06:27:39.410Z,88.29
2018-01-27T06:28:39.409Z,88.29
2018-01-27T06:29:39.409Z,88.10
2018-01-27T06:30:39.399Z,87.91
2018-01-27T06:31:39.392Z,87.91
2018-01-27T06:32:39.390Z,88.20
2018-01-27T06:33:39.385Z,88.10
2018-01-27T06:34:39.378Z,88.01
2018-01-27T06:35:39.372Z,87.72
2018-01-27T06:36:39.365Z,87.72
2018-01-27T06:37:39.369Z,87.62
2018-01-27T06:38:39.357Z,87.62
2018-01-27T06:39:39.352Z,88.20
2018-01-27T06:40:39.379Z,88.10
2018-01-27T06:41:39.347Z,88.10
2018-01-27T06:42:39.338Z,88.29
2018-01-27T06:43:39.330Z,87.91
2018-01-27T06:44:39.327Z,87.62
2018-01-27T06:45:39.321Z,87.72
2018-01-27T06:46:39.316Z,87.43
2018-01-27T06:47:39.311Z,88.10
2018-01-27T06:48:39.307Z,87.82
2018-01-27T06:49:39.301Z,87.91
2018-01-27T06:50:39.295Z,87.72
2018-01-27T06:51:39.294Z,87.72
2018-01-27T06:52:39.287Z,87.87
2018-01-27T06:53:39.279Z,87.91
2018-01-27T06:54:39.275Z,88.20
2018-01-27T06:55:39.267Z,88.20
2018-01-27T06:56:39.279Z,88.20
2018-01-27T06:57:39.264Z,88.29
2018-01-27T06:58:39.256Z,87.72
2018-01-27T06:59:39.251Z,87.62
2018-01-27T07:00:39.246Z,87.53
2018-01-27T07:01:39.239Z,88.29
2018-01-27T07:02:39.233Z,87.91
2018-01-27T07:03:39.229Z,87.82
2018-01-27T07:04:39.220Z,87.72
2018-01-27T07:05:39.217Z,87.43
2018-01-27T07:06:39.211Z,87.72
2018-01-27T07:07:39.214Z,87.91
2018-01-27T07:08:39.200Z,87.91
2018-01-27T07:09:39.199Z,87.82
2018-01-27T07:10:39.185Z,87.82
2018-01-27T07:11:39.185Z,88.29
2018-01-27T07:12:39.179Z,87.72
2018-01-27T07:13:39.175Z,88.10
2018-01-27T07:14:39.168Z,88.01
2018-01-27T07:15:39.167Z,87.72
2018-01-27T07:16:39.158Z,87.91
2018-01-27T07:17:39.154Z,87.62
2018-01-27T07:18:39.152Z,87.62
2018-01-27T07:19:39.140Z,88.10
2018-01-27T07:20:39.139Z,87.53
2018-01-27T07:21:39.136Z,87.72
2018-01-27T07:22:39.129Z,88.01
2018-01-27T07:23:39.122Z,87.72
2018-01-27T07:24:39.124Z,87.82
2018-01-27T07:25:39.113Z,88.01
2018-01-27T07:26:39.107Z,87.62
2018-01-27T07:27:39.107Z,87.53
2018-01-27T07:28:39.095Z,87.34
2018-01-27T07:29:39.092Z,87.24
2018-01-27T07:30:39.086Z,87.82
2018-01-27T07:31:39.086Z,87.34
2018-01-27T07:32:39.075Z,87.91
2018-01-27T07:33:39.080Z,86.87
2018-01-27T07:34:39.064Z,87.05
2018-01-27T07:35:39.060Z,87.05
2018-01-27T07:36:39.049Z,86.96
2018-01-27T07:37:39.049Z,87.72
2018-01-27T07:38:39.043Z,87.15
2018-01-27T07:39:39.038Z,87.43
2018-01-27T07:40:39.033Z,87.43
2018-01-27T07:41:39.033Z,87.72
2018-01-27T07:42:39.023Z,87.49
2018-01-27T07:43:39.016Z,87.62
2018-01-27T07:44:39.007Z,87.43
2018-01-27T07:45:39.005Z,87.82
2018-01-27T07:46:39.001Z,87.72
2018-01-27T07:47:38.995Z,87.15
2018-01-27T07:48:38.991Z,87.53
2018-01-27T07:49:38.988Z,86.87
2018-01-27T07:50:38.978Z,86.96
2018-01-27T07:51:38.974Z,87.24
2018-01-27T07:52:38.968Z,86.96
2018-01-27T07:53:38.961Z,87.05
2018-01-27T07:54:38.957Z,87.15
2018-01-27T07:55:38.953Z,87.34
2018-01-27T07:56:38.947Z,87.15
2018-01-27T07:57:38.941Z,86.87
2018-01-27T07:58:38.968Z,86.96
2018-01-27T07:59:38.931Z,87.24
2018-01-27T08:00:38.927Z,86.96
2018-01-27T08:01:38.920Z,87.43
2018-01-27T08:02:38.914Z,87.43
2018-01-27T08:03:38.908Z,87.43
2018-01-27T08:04:38.903Z,87.53
2018-01-27T08:05:38.898Z,86.96
2018-01-27T08:06:38.892Z,87.15
2018-01-27T08:07:38.887Z,86.87
2018-01-27T08:08:38.885Z,86.96
2018-01-27T08:09:38.877Z,87.34
2018-01-27T08:10:38.869Z,86.96
2018-01-27T08:11:38.867Z,87.05
2018-01-27T08:12:38.861Z,87.15
2018-01-27T08:13:38.855Z,87.15
2018-01-27T08:14:38.849Z,87.34
2018-01-27T08:15:38.842Z,87.15
2018-01-27T08:16:38.839Z,86.77
2018-01-27T08:17:38.833Z,87.24
2018-01-27T08:18:38.828Z,86.87
2018-01-27T08:19:38.822Z,86.68
2018-01-27T08:20:38.820Z,87.34
2018-01-27T08:21:38.813Z,86.87
2018-01-27T08:22:38.807Z,87.53
2018-01-27T08:23:38.801Z,86.77
2018-01-27T08:24:38.801Z,87.34
2018-01-27T08:25:38.793Z,86.87
2018-01-27T08:26:38.785Z,87.34
2018-01-27T08:27:38.790Z,87.34
2018-01-27T08:28:38.776Z,86.68
2018-01-27T08:29:38.775Z,86.77
2018-01-27T08:30:38.764Z,86.87
2018-01-27T08:31:38.761Z,86.87
2018-01-27T08:32:38.756Z,86.77
2018-01-27T08:33:38.754Z,86.49
2018-01-27T08:34:38.745Z,87.53
2018-01-27T08:35:38.740Z,87.34
2018-01-27T08:36:38.731Z,86.87
2018-01-27T08:37:38.729Z,86.77
2018-01-27T08:38:38.723Z,86.96
2018-01-27T08:39:38.722Z,86.77
2018-01-27T08:40:38.714Z,87.72
2018-01-27T08:41:38.710Z,86.34
2018-01-27T08:42:38.705Z,86.53
2018-01-27T08:43:38.698Z,87.01
2018-01-27T08:44:38.691Z,86.58
2018-01-27T08:45:38.687Z,87.01
2018-01-27T08:46:38.687Z,86.72
2018-01-27T08:47:38.683Z,85.96
2018-01-27T08:48:38.669Z,86.63
2018-01-27T08:49:38.670Z,85.96
2018-01-27T08:50:38.665Z,86.53
2018-01-27T08:51:38.658Z,86.49
2018-01-27T08:52:38.663Z,86.20
2018-01-27T08:53:38.647Z,87.01
2018-01-27T08:54:38.643Z,86.72
2018-01-27T08:55:38.640Z,85.77
2018-01-27T08:56:38.634Z,86.43
2018-01-27T08:57:38.629Z,85.77
2018-01-27T08:58:38.624Z,85.77
2018-01-27T08:59:38.619Z,86.39
2018-01-27T09:00:38.616Z,86.49
2018-01-27T09:01:38.609Z,86.30
2018-01-27T09:02:38.604Z,86.24
2018-01-27T09:03:38.599Z,86.43
2018-01-27T09:04:38.600Z,86.43
2018-01-27T09:05:38.588Z,86.24
2018-01-27T09:06:38.584Z,85.86
2018-01-27T09:07:38.583Z,86.34
2018-01-27T09:08:38.575Z,86.15
2018-01-27T09:09:38.572Z,86.43
2018-01-27T09:10:38.568Z,85.77
2018-01-27T09:11:38.561Z,85.86
2018-01-27T09:12:38.587Z,86.24
2018-01-27T09:13:38.551Z,85.77
2018-01-27T09:14:38.544Z,86.43
2018-01-27T09:15:38.541Z,85.77
2018-01-27T09:16:38.536Z,86.24
2018-01-27T09:17:38.532Z,85.77
2018-01-27T09:18:38.528Z,85.68
2018-01-27T09:19:38.524Z,86.15
2018-01-27T09:20:38.518Z,84.82
2018-01-27T09:21:38.512Z,85.86
2018-01-27T09:22:38.507Z,85.49
2018-01-27T09:23:38.502Z,85.77
2018-01-27T09:24:38.502Z,85.30
2018-01-27T09:25:38.495Z,85.11
2018-01-27T09:26:38.489Z,85.77
2018-01-27T09:27:38.485Z,85.30
2018-01-27T09:28:38.486Z,85.86
2018-01-27T09:29:38.476Z,86.24
2018-01-27T09:30:38.470Z,85.30
2018-01-27T09:31:38.469Z,85.68
2018-01-27T09:32:38.463Z,85.58
2018-01-27T09:33:38.456Z,85.77
2018-01-27T09:34:38.454Z,85.72
2018-01-27T09:35:38.449Z,85.39
2018-01-27T09:36:38.443Z,85.39
2018-01-27T09:37:38.440Z,85.62
2018-01-27T09:38:38.434Z,84.95
2018-01-27T09:39:38.430Z,85.24
2018-01-27T09:40:38.424Z,85.34
2018-01-27T09:41:38.419Z,85.81
2018-01-27T09:42:38.452Z,85.62
2018-01-27T09:43:38.414Z,84.77
2018-01-27T09:44:38.407Z,85.53
2018-01-27T09:45:38.403Z,84.67
2018-01-27T09:46:38.399Z,85.30
2018-01-27T09:47:38.392Z,84.95
2018-01-27T09:48:38.388Z,85.24
2018-01-27T09:49:38.384Z,85.81
2018-01-27T09:50:38.380Z,85.05
2018-01-27T09:51:38.376Z,85.05
2018-01-27T09:52:38.378Z,85.05
2018-01-27T09:53:38.369Z,84.86
2018-01-27T09:54:38.365Z,84.29
2018-01-27T09:55:38.358Z,84.29
2018-01-27T09:56:38.351Z,84.29
2018-01-27T09:57:38.353Z,84.29
2018-01-27T09:58:38.343Z,85.91
2018-01-27T09:59:38.337Z,84.67
2018-01-27T10:00:38.336Z,84.58
2018-01-27T10:01:38.333Z,84.86
2018-01-27T10:02:38.330Z,84.10
2018-01-27T10:03:38.320Z,84.01
2018-01-27T10:04:38.317Z,84.48
2018-01-27T10:05:38.315Z,84.20
2018-01-27T10:06:38.307Z,84.58
2018-01-27T10:07:38.304Z,84.58
2018-01-27T10:08:38.299Z,85.34
2018-01-27T10:09:38.296Z,84.20
2018-01-27T10:10:38.290Z,83.72
2018-01-27T10:11:38.284Z,84.48
2018-01-27T10:12:38.279Z,84.95
2018-01-27T10:13:38.308Z,84.10
2018-01-27T10:14:38.270Z,83.72
2018-01-27T10:15:38.268Z,83.91
2018-01-27T10:16:38.264Z,83.82
2018-01-27T10:17:38.258Z,84.48
2018-01-27T10:18:38.254Z,84.48
2018-01-27T10:19:38.250Z,84.29
2018-01-27T10:20:38.245Z,83.72
2018-01-27T10:21:38.248Z,84.48
2018-01-27T10:22:38.235Z,84.29
2018-01-27T10:23:38.237Z,84.77
2018-01-27T10:24:38.228Z,84.29
2018-01-27T10:25:38.224Z,84.01
2018-01-27T10:26:38.221Z,84.39
2018-01-27T10:27:38.214Z,84.67
2018-01-27T10:28:38.211Z,83.72
2018-01-27T10:29:38.206Z,83.44
2018-01-27T10:30:38.202Z,84.86
2018-01-27T10:31:38.201Z,83.82
2018-01-27T10:32:38.194Z,84.01
2018-01-27T10:33:38.189Z,84.10
2018-01-27T10:34:38.185Z,83.72
2018-01-27T10:35:38.180Z,83.53
2018-01-27T10:36:38.176Z,83.53
2018-01-27T10:37:38.183Z,84.29
2018-01-27T10:38:38.167Z,83.15
2018-01-27T10:39:38.164Z,83.15
2018-01-27T10:40:38.162Z,83.91
2018-01-27T10:41:38.156Z,82.58
2018-01-27T10:42:38.150Z,83.44
2018-01-27T10:43:38.147Z,84.16
2018-01-27T10:44:38.142Z,83.68
2018-01-27T10:45:38.139Z,83.97
2018-01-27T10:46:38.136Z,83.87
2018-01-27T10:47:38.132Z,83.49
2018-01-27T10:48:38.132Z,82.73
2018-01-27T10:49:38.121Z,83.49
2018-01-27T10:50:38.116Z,82.54
2018-01-27T10:51:38.115Z,83.59
2018-01-27T10:52:38.104Z,83.87
2018-01-27T10:53:38.101Z,84.34
2018-01-27T10:54:38.097Z,83.97
2018-01-27T10:55:38.098Z,84.25
2018-01-27T10:56:38.090Z,84.34
2018-01-27T10:57:38.083Z,83.49
2018-01-27T10:58:38.080Z,83.97
2018-01-27T10:59:38.074Z,84.25
2018-01-27T11:00:38.074Z,84.25
2018-01-27T11:01:38.067Z,84.44
2018-01-27T11:02:38.065Z,84.63
2018-01-27T11:03:38.056Z,84.25
2018-01-27T11:04:38.052Z,83.59
2018-01-27T11:05:38.047Z,84.25
2018-01-27T11:06:38.040Z,84.25
2018-01-27T11:07:38.038Z,84.63
2018-01-27T11:08:38.137Z,84.63
2018-01-27T11:09:38.029Z,83.59
2018-01-27T11:10:38.022Z,84.91
2018-01-27T11:11:38.018Z,83.97
2018-01-27T11:12:38.013Z,84.25
2018-01-27T11:13:38.009Z,84.34
2018-01-27T11:14:38.008Z,84.63
2018-01-27T11:15:37.997Z,84.34
2018-01-27T11:16:37.994Z,84.44
2018-01-27T11:17:37.990Z,85.49
2018-01-27T11:18:37.983Z,84.72
2018-01-27T11:19:37.980Z,84.44
2018-01-27T11:20:37.974Z,84.16
2018-01-27T11:21:37.971Z,83.87
2018-01-27T11:22:37.964Z,84.44
2018-01-27T11:23:37.961Z,84.34
2018-01-27T11:24:37.954Z,84.25
2018-01-27T11:25:37.949Z,84.82
2018-01-27T11:26:37.946Z,84.44
2018-01-27T11:27:37.938Z,83.59
2018-01-27T11:28:37.933Z,84.44
2018-01-27T11:29:37.932Z,84.63
2018-01-27T11:30:37.925Z,84.44
2018-01-27T11:31:37.926Z,84.44
2018-01-27T11:32:37.916Z,84.34
2018-01-27T11:33:37.911Z,84.53
2018-01-27T11:34:37.905Z,84.16
2018-01-27T11:35:37.902Z,84.06
2018-01-27T11:36:37.896Z,84.16
2018-01-27T11:37:37.891Z,84.16
2018-01-27T11:38:37.887Z,84.72
2018-01-27T11:39:37.882Z,84.63
2018-01-27T11:40:37.879Z,84.63
2018-01-27T11:41:37.875Z,84.49
2018-01-27T11:42:37.878Z,84.21
2018-01-27T11:43:37.863Z,84.30
2018-01-27T11:44:37.859Z,84.34
2018-01-27T11:45:37.854Z,84.11
2018-01-27T11:46:37.849Z,84.25
2018-01-27T11:47:37.845Z,85.25
2018-01-27T11:48:37.839Z,84.44
2018-01-27T11:49:37.850Z,84.25
2018-01-27T11:50:37.830Z,84.25
2018-01-27T11:51:37.829Z,84.44
2018-01-27T11:52:37.821Z,83.87
2018-01-27T11:53:37.817Z,84.44
2018-01-27T11:54:37.814Z,84.16
2018-01-27T11:55:37.805Z,84.44
2018-01-27T11:56:37.802Z,84.34
2018-01-27T11:57:37.797Z,84.16
2018-01-27T11:58:37.798Z,84.44
2018-01-27T11:59:37.788Z,84.53
2018-01-27T12:00:37.783Z,84.63
2018-01-27T12:01:37.780Z,83.78
2018-01-27T12:02:37.772Z,83.87
2018-01-27T12:03:37.771Z,84.44
2018-01-27T12:04:37.761Z,84.06
2018-01-27T12:05:37.762Z,84.06
2018-01-27T12:06:37.805Z,83.78
2018-01-27T12:07:37.790Z,84.44
2018-01-27T12:08:37.746Z,84.44
2018-01-27T12:09:37.740Z,84.34
2018-01-27T12:10:37.735Z,83.97
2018-01-27T12:11:37.732Z,85.20
2018-01-27T12:12:37.728Z,84.53
2018-01-27T12:13:37.721Z,84.16
2018-01-27T12:14:37.717Z,84.34
2018-01-27T12:15:37.712Z,84.34
2018-01-27T12:16:37.714Z,84.72
2018-01-27T12:17:37.708Z,84.44
2018-01-27T12:18:37.698Z,84.25
2018-01-27T12:19:37.695Z,84.44
2018-01-27T12:20:37.690Z,84.06
2018-01-27T12:21:37.688Z,84.44
2018-01-27T12:22:37.679Z,84.44
2018-01-27T12:23:37.678Z,84.34
2018-01-27T12:24:37.675Z,83.30
2018-01-27T12:25:37.665Z,83.78
2018-01-27T12:26:37.661Z,84.72
2018-01-27T12:27:37.657Z,84.06
2018-01-27T12:28:37.655Z,83.87
2018-01-27T12:29:37.650Z,84.34
2018-01-27T12:30:37.643Z,84.44
2018-01-27T12:31:37.641Z,83.87
2018-01-27T12:32:37.636Z,83.87
2018-01-27T12:33:37.638Z,84.82
2018-01-27T12:34:37.630Z,84.34
2018-01-27T12:35:37.622Z,84.16
2018-01-27T12:36:37.617Z,84.25
2018-01-27T12:37:37.612Z,84.06
2018-01-27T12:38:37.609Z,83.87
2018-01-27T12:39:37.614Z,83.59
2018-01-27T12:40:37.596Z,83.87
2018-01-27T12:41:37.595Z,83.78
2018-01-27T12:42:37.590Z,83.78
2018-01-27T12:43:37.586Z,84.06
2018-01-27T12:44:37.583Z,84.25
2018-01-27T12:45:37.577Z,83.20
2018-01-27T12:46:37.574Z,83.68
2018-01-27T12:47:37.568Z,83.30
2018-01-27T12:48:37.568Z,83.39
2018-01-27T12:49:37.554Z,83.87
2018-01-27T12:50:37.556Z,83.01
2018-01-27T12:51:37.552Z,83.39
2018-01-27T12:52:37.543Z,83.68